Tacoma, WA

2:33 PM PST on February 23, 2017 (GMT -0800)
Strawberry Hill | | Change Station

Elev 322 ft 47.23 °N, 122.42 °W | Updated 3 seconds ago

Rain
Rain
35.5 °F
Feels Like 36 °F
N
2.3
Wind Variable Wind from SSW
Gusts 2.3 mph

Today
High -- | Low -- °F
--% Chance of Precip.
Yesterday
High -- | Low -- °F
Precip. -- in
Pressure 30.26 in
Visibility 10.0 miles
Clouds Scattered Clouds 1400 ft
Mostly Cloudy 2200 ft
Mostly Cloudy 4500 ft
Windchill 36 °F
Dew Point 33 °F
Humidity 90%
Rainfall 0.14 in
Snow Depth Not available.
7:00 AM 5:46 PM
Waning Crescent, 8% visible
METAR KTIW 232153Z 04003KT 10SM -RA SCT014 BKN022 BKN045 03/02 A3024 RMK AO2 RAB14 SLP246 P0001 T00280017
Pressure 30.26 in
Visibility 10.0 miles
Clouds Scattered Clouds 1400 ft
Mostly Cloudy 2200 ft
Mostly Cloudy 4500 ft
Windchill 36 °F
Dew Point 33 °F
Humidity 90%
Rainfall 0.14 in
Snow Depth Not available.
7:00 AM 5:46 PM
Waning Crescent, 8% visible
METAR KTIW 232153Z 04003KT 10SM -RA SCT014 BKN022 BKN045 03/02 A3024 RMK AO2 RAB14 SLP246 P0001 T00280017

Get Your Daily Forecast Email!

Thanks for signing up!

Be on the lookout for a verification email in your inbox.

You'll start receiving the daily forecast at 8 AM.

×

10-Day Weather Forecast

Almanac

Astronomy

Feb. 23, 2017 Rise Set
Actual Time
Civil Twilight
Nautical Twilight
Astronomical Twilight
Moon
Length of Visible Light
Length of Day
Tomorrow will be .
, % of the Moon is Illuminated

Today's Extremes

State Highs State Lows

Community

WunderPhotos

Upload Photos

1,962,540 photos uploaded!

WunderBlog® & News

Nearby

Air Quality

  Air Quality AQ Index Pollutant
Not available.

Snow Depth

Station Depth Elevation

Earthquake Activity

City Distance Mag. Time & Date
Minimum magnitude displayed is 2.5.

Coastal Water Temperatures

Place Temperature

Stations

Nearby Weather Stations

Station Location Temp. Windchill Dew Point Humidity Wind Precip. Elev Updated Type
                   

Watches & Warnings

There are currently no watches in effect.